createdAt,value
2018-12-12T17:48:12.276Z,2.64
2018-12-12T17:49:12.172Z,2.57
2018-12-12T17:50:12.216Z,2.51
2018-12-12T17:51:12.272Z,2.56
2018-12-12T17:52:12.321Z,2.44
2018-12-12T17:53:12.384Z,2.44
2018-12-12T17:54:12.432Z,2.44
2018-12-12T17:55:12.476Z,2.29
2018-12-12T17:56:12.528Z,2.38
2018-12-12T17:57:12.584Z,2.33
2018-12-12T17:58:12.644Z,2.31
2018-12-12T17:59:12.701Z,2.31
2018-12-12T18:00:12.749Z,2.18
2018-12-12T18:01:12.801Z,2.11
2018-12-12T18:02:12.856Z,2.13
2018-12-12T18:03:12.922Z,2.04
2018-12-12T18:04:12.977Z,2.15
2018-12-12T18:05:15.405Z,2.18
2018-12-12T18:06:13.081Z,2.14
2018-12-12T18:07:13.141Z,1.99
2018-12-12T18:08:13.220Z,2.02
2018-12-12T18:09:13.249Z,2.07
2018-12-12T18:10:13.305Z,2.07
2018-12-12T18:11:13.362Z,2.04
2018-12-12T18:12:13.417Z,2.13
2018-12-12T18:13:13.482Z,2.17
2018-12-12T18:14:13.538Z,2.24
2018-12-12T18:15:13.585Z,2.31
2018-12-12T18:16:13.646Z,2.32
2018-12-12T18:17:13.702Z,2.31
2018-12-12T18:18:13.765Z,2.24
2018-12-12T18:19:13.822Z,2.31
2018-12-12T18:20:13.874Z,2.38
2018-12-12T18:21:13.930Z,2.36
2018-12-12T18:22:13.985Z,2.39
2018-12-12T18:23:14.054Z,2.36
2018-12-12T18:24:14.234Z,2.44
2018-12-12T18:25:14.158Z,2.54
2018-12-12T18:26:14.219Z,2.47
2018-12-12T18:27:14.274Z,2.68
2018-12-12T18:28:14.342Z,2.57
2018-12-12T18:29:14.406Z,2.67
2018-12-12T18:30:14.446Z,2.65
2018-12-12T18:31:14.503Z,2.72
2018-12-12T18:32:14.562Z,2.67
2018-12-12T18:33:14.630Z,2.68
2018-12-12T18:34:14.686Z,2.65
2018-12-12T18:35:14.739Z,2.68
2018-12-12T18:36:14.795Z,2.60
2018-12-12T18:37:14.855Z,2.57
2018-12-12T18:38:14.915Z,2.64
2018-12-12T18:39:14.971Z,2.61
2018-12-12T18:40:16.099Z,2.60
2018-12-12T18:41:15.078Z,2.67
2018-12-12T18:42:15.138Z,2.67
2018-12-12T18:43:15.527Z,2.79
2018-12-12T18:44:15.251Z,2.68
2018-12-12T18:45:15.311Z,2.79
2018-12-12T18:46:15.480Z,2.75
2018-12-12T18:47:15.426Z,2.77
2018-12-12T18:48:15.483Z,2.69
2018-12-12T18:49:15.783Z,2.72
2018-12-12T18:50:15.600Z,2.65
2018-12-12T18:51:15.655Z,2.68
2018-12-12T18:52:15.715Z,2.67
2018-12-12T18:53:16.174Z,2.68
2018-12-12T18:54:15.839Z,2.68
2018-12-12T18:55:15.895Z,2.68
2018-12-12T18:56:15.947Z,2.75
2018-12-12T18:57:16.007Z,2.79
2018-12-12T18:58:16.063Z,2.83
2018-12-12T18:59:16.207Z,2.82
2018-12-12T19:00:16.288Z,2.83
2018-12-12T19:01:16.235Z,2.77
2018-12-12T19:02:16.731Z,2.79
2018-12-12T19:03:16.354Z,2.69
2018-12-12T19:04:16.416Z,2.69
2018-12-12T19:05:16.475Z,2.68
2018-12-12T19:06:16.524Z,2.68
2018-12-12T19:07:16.584Z,2.61
2018-12-12T19:08:16.639Z,2.60
2018-12-12T19:09:16.708Z,2.60
2018-12-12T19:10:16.764Z,2.50
2018-12-12T19:11:16.816Z,2.61
2018-12-12T19:12:16.872Z,2.50
2018-12-12T19:13:16.932Z,2.53
2018-12-12T19:14:17.004Z,2.53
2018-12-12T19:15:17.056Z,2.56
2018-12-12T19:16:17.103Z,2.62
2018-12-12T19:17:17.164Z,2.74
2018-12-12T19:18:17.220Z,2.69
2018-12-12T19:19:17.372Z,2.72
2018-12-12T19:20:17.340Z,2.85
2018-12-12T19:21:17.396Z,2.86
2018-12-12T19:22:17.454Z,2.89
2018-12-12T19:23:17.508Z,2.95
2018-12-12T19:24:17.577Z,2.89
2018-12-12T19:25:17.633Z,2.97
2018-12-12T19:26:17.685Z,2.92
2018-12-12T19:27:17.740Z,2.92
2018-12-12T19:28:17.836Z,2.95
2018-12-12T19:29:17.864Z,3.00
2018-12-12T19:30:17.925Z,2.97
2018-12-12T19:31:17.973Z,3.00
2018-12-12T19:32:18.034Z,2.98
2018-12-12T19:33:18.093Z,2.93
2018-12-12T19:34:18.193Z,2.95
2018-12-12T19:35:18.208Z,2.95
2018-12-12T19:36:18.267Z,2.97
2018-12-12T19:37:18.327Z,3.07
2018-12-12T19:38:18.386Z,3.00
2018-12-12T19:39:18.445Z,3.03
2018-12-12T19:40:18.505Z,2.95
2018-12-12T19:41:18.566Z,3.01
2018-12-12T19:42:18.613Z,3.01
2018-12-12T19:43:18.673Z,3.07
2018-12-12T19:44:18.738Z,3.01
2018-12-12T19:45:18.798Z,3.03
2018-12-12T19:46:18.854Z,2.98
2018-12-12T19:47:18.906Z,3.04
2018-12-12T19:48:18.968Z,3.08
2018-12-12T19:49:19.030Z,3.11
2018-12-12T19:50:19.091Z,3.13
2018-12-12T19:51:19.137Z,3.16
2018-12-12T19:52:19.198Z,3.19
2018-12-12T19:53:19.260Z,3.19
2018-12-12T19:54:19.414Z,3.13
2018-12-12T19:55:19.374Z,3.25
2018-12-12T19:56:19.430Z,3.21
2018-12-12T19:57:19.490Z,3.23
2018-12-12T19:58:19.550Z,3.25
2018-12-12T19:59:19.615Z,3.29
2018-12-12T20:00:19.674Z,3.28
2018-12-12T20:01:19.731Z,3.34
2018-12-12T20:02:19.782Z,3.29
2018-12-12T20:03:19.847Z,3.32
2018-12-12T20:04:19.911Z,3.28
2018-12-12T20:05:19.970Z,3.40
2018-12-12T20:06:20.020Z,3.41
2018-12-12T20:07:20.078Z,3.34
2018-12-12T20:08:20.141Z,3.42
2018-12-12T20:09:20.198Z,3.42
2018-12-12T20:10:20.387Z,3.45
2018-12-12T20:11:20.311Z,3.50
2018-12-12T20:12:20.371Z,3.50
2018-12-12T20:13:20.432Z,3.50
2018-12-12T20:14:20.488Z,3.50
2018-12-12T20:15:20.555Z,3.59
2018-12-12T20:16:20.615Z,3.56
2018-12-12T20:17:20.663Z,3.51
2018-12-12T20:18:20.723Z,3.56
2018-12-12T20:19:20.790Z,3.55
2018-12-12T20:20:20.847Z,3.55
2018-12-12T20:21:20.908Z,3.56
2018-12-12T20:22:20.960Z,3.55
2018-12-12T20:23:21.016Z,3.50
2018-12-12T20:24:21.075Z,3.60
2018-12-12T20:25:21.260Z,3.56
2018-12-12T20:26:21.192Z,3.58
2018-12-12T20:27:21.252Z,3.59
2018-12-12T20:28:21.313Z,3.65
2018-12-12T20:29:21.368Z,3.66
2018-12-12T20:30:21.436Z,3.62
2018-12-12T20:31:21.496Z,3.66
2018-12-12T20:32:21.551Z,3.63
2018-12-12T20:33:21.604Z,3.62
2018-12-12T20:34:21.664Z,3.65
2018-12-12T20:35:21.728Z,3.63
2018-12-12T20:36:21.790Z,3.65
2018-12-12T20:37:21.846Z,3.66
2018-12-12T20:38:21.900Z,3.73
2018-12-12T20:39:21.960Z,3.68
2018-12-12T20:40:22.028Z,3.66
2018-12-12T20:41:22.085Z,3.65
2018-12-12T20:42:22.137Z,3.66
2018-12-12T20:43:22.196Z,3.74
2018-12-12T20:44:22.253Z,3.74
2018-12-12T20:45:22.321Z,3.73
2018-12-12T20:46:22.377Z,3.77
2018-12-12T20:47:22.430Z,3.68
2018-12-12T20:48:22.489Z,3.83
2018-12-12T20:49:22.549Z,3.63
2018-12-12T20:50:22.717Z,3.77
2018-12-12T20:51:22.691Z,3.78
2018-12-12T20:52:22.725Z,3.80
2018-12-12T20:53:22.781Z,3.83
2018-12-12T20:54:22.845Z,3.84
2018-12-12T20:55:22.901Z,3.80
2018-12-12T20:56:22.965Z,3.80
2018-12-12T20:57:23.025Z,3.84
2018-12-12T20:58:23.078Z,3.86
2018-12-12T20:59:23.137Z,3.77
2018-12-12T21:00:23.193Z,3.83
2018-12-12T21:01:23.258Z,3.88
2018-12-12T21:02:23.550Z,3.92
2018-12-12T21:03:23.374Z,3.88
2018-12-12T21:04:23.434Z,3.91
2018-12-12T21:05:23.490Z,3.86
2018-12-12T21:06:23.551Z,3.99
2018-12-12T21:07:23.615Z,3.91
2018-12-12T21:08:23.674Z,3.84
2018-12-12T21:09:23.746Z,3.83
2018-12-12T21:10:23.787Z,3.88
2018-12-12T21:11:23.842Z,3.87
2018-12-12T21:12:23.910Z,3.96
2018-12-12T21:13:23.970Z,3.98
2018-12-12T21:14:24.023Z,3.99
2018-12-12T21:15:24.083Z,3.98
2018-12-12T21:16:24.139Z,3.99
2018-12-12T21:17:24.214Z,3.94
2018-12-12T21:18:24.256Z,3.98
2018-12-12T21:19:24.316Z,3.98
2018-12-12T21:20:24.374Z,4.02
2018-12-12T21:21:24.437Z,3.94
2018-12-12T21:22:24.510Z,3.92
2018-12-12T21:23:24.603Z,3.92
2018-12-12T21:24:24.610Z,3.92
2018-12-12T21:25:24.671Z,4.01
2018-12-12T21:26:24.726Z,3.98
2018-12-12T21:27:24.795Z,3.95
2018-12-12T21:28:24.851Z,3.98
2018-12-12T21:29:24.904Z,3.98
2018-12-12T21:30:24.963Z,3.96
2018-12-12T21:31:25.043Z,3.98
2018-12-12T21:32:25.404Z,3.99
2018-12-12T21:33:25.141Z,3.95
2018-12-12T21:34:25.201Z,3.98
2018-12-12T21:35:25.259Z,4.02
2018-12-12T21:36:25.315Z,3.96
2018-12-12T21:37:25.375Z,4.04
2018-12-12T21:38:25.623Z,4.06
2018-12-12T21:39:25.495Z,4.04
2018-12-12T21:40:25.551Z,4.06
2018-12-12T21:41:25.612Z,4.10
2018-12-12T21:42:25.675Z,3.98
2018-12-12T21:43:25.735Z,4.04
2018-12-12T21:44:25.795Z,4.08
2018-12-12T21:45:25.857Z,4.04
2018-12-12T21:46:25.908Z,4.06
2018-12-12T21:47:25.977Z,4.04
2018-12-12T21:48:26.032Z,4.05
2018-12-12T21:49:26.092Z,4.05
2018-12-12T21:50:26.143Z,4.10
2018-12-12T21:51:26.207Z,4.12
2018-12-12T21:52:26.260Z,4.05
2018-12-12T21:53:26.328Z,4.08
2018-12-12T21:54:26.386Z,4.01
2018-12-12T21:55:26.436Z,4.06
2018-12-12T21:56:26.495Z,4.06
2018-12-12T21:57:26.556Z,4.12
2018-12-12T21:58:26.620Z,4.17
2018-12-12T21:59:26.680Z,4.19
2018-12-12T22:00:26.732Z,4.13
2018-12-12T22:01:26.792Z,4.13
2018-12-12T22:02:26.848Z,4.08
2018-12-12T22:03:26.916Z,4.10
2018-12-12T22:04:26.976Z,4.20
2018-12-12T22:05:27.028Z,4.14
2018-12-12T22:06:27.084Z,4.10
2018-12-12T22:07:27.144Z,4.14
2018-12-12T22:08:27.459Z,4.17
2018-12-12T22:09:27.266Z,4.16
2018-12-12T22:10:27.322Z,4.13
2018-12-12T22:11:27.380Z,4.14
2018-12-12T22:12:27.441Z,4.12
2018-12-12T22:13:27.506Z,4.22
2018-12-12T22:14:27.565Z,4.12
2018-12-12T22:15:27.617Z,4.08
2018-12-12T22:16:27.677Z,4.14
2018-12-12T22:17:27.737Z,4.17
2018-12-12T22:18:27.807Z,4.17
2018-12-12T22:19:27.873Z,4.08
2018-12-12T22:20:27.917Z,4.14
2018-12-12T22:21:27.969Z,4.12
2018-12-12T22:22:28.029Z,4.17
2018-12-12T22:23:28.211Z,4.14
2018-12-12T22:24:28.149Z,4.17
2018-12-12T22:25:28.205Z,4.19
2018-12-12T22:26:28.265Z,4.17
2018-12-12T22:27:28.325Z,4.19
2018-12-12T22:28:28.394Z,4.20
2018-12-12T22:29:28.449Z,4.19
2018-12-12T22:30:28.501Z,4.16
2018-12-12T22:31:28.561Z,4.22
2018-12-12T22:32:28.621Z,4.17
2018-12-12T22:33:28.685Z,4.06
2018-12-12T22:34:28.746Z,4.23
2018-12-12T22:35:28.797Z,4.23
2018-12-12T22:36:28.859Z,4.17
2018-12-12T22:37:28.913Z,4.20
2018-12-12T22:38:28.982Z,4.23
2018-12-12T22:39:29.042Z,4.20
2018-12-12T22:40:29.098Z,4.17
2018-12-12T22:41:29.155Z,4.17
2018-12-12T22:42:29.210Z,4.26
2018-12-12T22:43:29.270Z,4.20
2018-12-12T22:44:29.379Z,4.24
2018-12-12T22:45:29.391Z,4.20
2018-12-12T22:46:29.446Z,4.20
2018-12-12T22:47:29.506Z,4.30
2018-12-12T22:48:29.566Z,4.35
2018-12-12T22:49:29.638Z,4.26
2018-12-12T22:50:29.702Z,4.34
2018-12-12T22:51:29.743Z,4.32
2018-12-12T22:52:29.802Z,4.30
2018-12-12T22:53:29.863Z,4.38
2018-12-12T22:54:29.932Z,4.28
2018-12-12T22:55:29.986Z,4.34
2018-12-12T22:56:30.038Z,4.31
2018-12-12T22:57:30.098Z,4.22
2018-12-12T22:58:30.158Z,4.22
2018-12-12T22:59:30.216Z,4.14
2018-12-12T23:00:30.370Z,4.23
2018-12-12T23:01:30.334Z,4.16
2018-12-12T23:02:30.395Z,4.17
2018-12-12T23:03:30.450Z,4.13
2018-12-12T23:04:30.584Z,4.06
2018-12-12T23:05:30.578Z,4.10
2018-12-12T23:06:30.640Z,4.16
2018-12-12T23:07:30.686Z,4.14
2018-12-12T23:08:30.746Z,4.14
2018-12-12T23:09:30.806Z,4.04
2018-12-12T23:10:30.875Z,4.05
2018-12-12T23:11:30.930Z,4.13
2018-12-12T23:12:30.983Z,4.12
2018-12-12T23:13:31.039Z,4.08
2018-12-12T23:14:31.099Z,3.99
2018-12-12T23:15:31.351Z,4.05
2018-12-12T23:16:31.219Z,3.96
2018-12-12T23:17:31.279Z,3.98
2018-12-12T23:18:31.335Z,3.83
2018-12-12T23:19:31.398Z,3.87
2018-12-12T23:20:31.458Z,3.99
2018-12-12T23:21:31.519Z,4.01
2018-12-12T23:22:31.571Z,3.91
2018-12-12T23:23:31.627Z,3.98
2018-12-12T23:24:31.689Z,3.94
2018-12-12T23:25:31.755Z,3.91
2018-12-12T23:26:31.811Z,3.96
2018-12-12T23:27:31.863Z,3.98
2018-12-12T23:28:31.923Z,4.01
2018-12-12T23:29:31.987Z,3.96
2018-12-12T23:30:32.047Z,3.98
2018-12-12T23:31:32.107Z,3.96
2018-12-12T23:32:32.159Z,3.98
2018-12-12T23:33:32.215Z,3.83
2018-12-12T23:34:32.275Z,3.81
2018-12-12T23:35:32.351Z,3.94
2018-12-12T23:36:32.399Z,3.83
2018-12-12T23:37:32.452Z,3.86
2018-12-12T23:38:32.511Z,3.86
2018-12-12T23:39:32.567Z,3.86
2018-12-12T23:40:32.638Z,3.83
2018-12-12T23:41:32.695Z,3.78
2018-12-12T23:42:32.747Z,3.68
2018-12-12T23:43:32.804Z,3.74
2018-12-12T23:44:32.864Z,3.68
2018-12-12T23:45:32.928Z,3.70
2018-12-12T23:46:32.988Z,3.63
2018-12-12T23:47:33.040Z,3.63
2018-12-12T23:48:33.095Z,3.65
2018-12-12T23:49:33.155Z,3.63
2018-12-12T23:50:33.317Z,3.68
2018-12-12T23:51:33.272Z,3.56
2018-12-12T23:52:33.332Z,3.55
2018-12-12T23:53:33.393Z,3.59
2018-12-12T23:54:33.448Z,3.45
2018-12-12T23:55:33.516Z,3.53
2018-12-12T23:56:33.572Z,3.48
2018-12-12T23:57:33.624Z,3.58
2018-12-12T23:58:33.684Z,3.42
2018-12-12T23:59:33.740Z,3.47
